Faust — SLKQ — position and weather

sailwx.info

Track history (hours):
 
Tides and Currents Weather Stations Pressure Air Temp Water Temp Dewpoint Dewpoint Depression Visibility Wind Speed Wind Dir Waves Ship Positions

Faust

Last reported at 2014-Oct-29 20:33 UTC. Time now 2014-Nov-01 11:50 UTC.
Position N 37°27' E 023°41'.

Length 227.8 m; beam 32.3 m; draft 9.5 m.

Type: Cargo ship. MMSI: 266260000.

Date/timePositionNaut miles runAvg speedWind from/ knotsBaromVisibWave heightAir tempDewpointWater temp
2014-Oct-29 20:33N 37°27' E 023°41'1616.5
2014-Oct-29 19:34N 37°44' E 023°40'1313.0
2014-Oct-29 18:33N 37°56' E 023°36'1 1.2
2014-Oct-29 17:33N 37°58' E 023°36'0 0.0
2014-Oct-29 16:33N 37°58' E 023°36'0 0.0
2014-Oct-29 15:32N 37°58' E 023°36'0 0.0
2014-Oct-29 14:32N 37°58' E 023°36'0 0.0
2014-Oct-29 13:32N 37°58' E 023°36'0 0.0
2014-Oct-29 12:32N 37°58' E 023°36'0 0.0
2014-Oct-29 11:32N 37°58' E 023°36'0 0.0
2014-Oct-29 10:32N 37°58' E 023°36'0 0.0
2014-Oct-29 09:32N 37°58' E 023°36'0 0.0
2014-Oct-29 08:32N 37°58' E 023°36'0 0.0
2014-Oct-29 07:32N 37°58' E 023°36'0 0.0
2014-Oct-29 06:32N 37°58' E 023°36'2 1.8
2014-Oct-29 05:33N 37°56' E 023°36'6 5.9
2014-Oct-29 04:33N 37°51' E 023°39'1313.5
2014-Oct-29 03:33N 37°38' E 023°47'6 6.1
2014-Oct-29 02:33N 37°33' E 023°42'7 7.1
2014-Oct-29 01:33N 37°37' E 023°50'1615.5
2014-Oct-29 00:33N 37°25' E 024°03'1515.5
2014-Oct-28 23:33N 37°12' E 024°14'1515.2
2014-Oct-28 22:33N 37°01' E 024°26'1616.0
2014-Oct-28 21:33N 36°50' E 024°41'1616.0
2014-Oct-28 20:33N 36°35' E 024°49'1615.9
2014-Oct-28 19:33N 36°25' E 025°04'1615.9
2014-Oct-28 18:33N 36°15' E 025°20'1615.8
2014-Oct-28 17:33N 36°05' E 025°35'1716.5
2014-Oct-28 16:33N 35°55' E 025°51'1716.8
2014-Oct-28 15:33N 35°44' E 026°07'  
Track history (hours):
 
Tides and Currents Weather Stations Pressure Air Temp Water Temp Dewpoint Dewpoint Depression Visibility Wind Speed Wind Dir Waves Ship Positions

Faust

Last reported at 2014-Oct-29 20:33 UTC. Time now 2014-Nov-01 11:50 UTC.
Position N 37°27' E 023°41'.

Length 227.8 m; beam 32.3 m; draft 9.5 m.

Type: Cargo ship. MMSI: 266260000.

Date/timePositionNaut miles runAvg speedWind from/ knotsBaromVisibWave heightAir tempDewpointWater temp
2014-Oct-29 20:33N 37°27' E 023°41'1616.5
2014-Oct-29 19:34N 37°44' E 023°40'1313.0
2014-Oct-29 18:33N 37°56' E 023°36'1 1.2
2014-Oct-29 17:33N 37°58' E 023°36'0 0.0
2014-Oct-29 16:33N 37°58' E 023°36'0 0.0
2014-Oct-29 15:32N 37°58' E 023°36'0 0.0
2014-Oct-29 14:32N 37°58' E 023°36'0 0.0
2014-Oct-29 13:32N 37°58' E 023°36'0 0.0
2014-Oct-29 12:32N 37°58' E 023°36'0 0.0
2014-Oct-29 11:32N 37°58' E 023°36'0 0.0
2014-Oct-29 10:32N 37°58' E 023°36'0 0.0
2014-Oct-29 09:32N 37°58' E 023°36'0 0.0
2014-Oct-29 08:32N 37°58' E 023°36'0 0.0
2014-Oct-29 07:32N 37°58' E 023°36'0 0.0
2014-Oct-29 06:32N 37°58' E 023°36'2 1.8
2014-Oct-29 05:33N 37°56' E 023°36'6 5.9
2014-Oct-29 04:33N 37°51' E 023°39'1313.5
2014-Oct-29 03:33N 37°38' E 023°47'6 6.1
2014-Oct-29 02:33N 37°33' E 023°42'7 7.1
2014-Oct-29 01:33N 37°37' E 023°50'1615.5
2014-Oct-29 00:33N 37°25' E 024°03'1515.5
2014-Oct-28 23:33N 37°12' E 024°14'1515.2
2014-Oct-28 22:33N 37°01' E 024°26'1616.0
2014-Oct-28 21:33N 36°50' E 024°41'1616.0
2014-Oct-28 20:33N 36°35' E 024°49'1615.9
2014-Oct-28 19:33N 36°25' E 025°04'1615.9
2014-Oct-28 18:33N 36°15' E 025°20'1615.8
2014-Oct-28 17:33N 36°05' E 025°35'1716.5
2014-Oct-28 16:33N 35°55' E 025°51'1716.8
2014-Oct-28 15:33N 35°44' E 026°07'  

Dump ship's entire track history